Hauptseite
METAR-TAF:

METAR-TAF

Flughäfen :

Flughafen Lübeck

Lübeck, Deutschland

Breite: 53-49N, Länge: 010-42E, Höhe: 14 m

Beobachtung

Neuester Wetterbericht von vor 25 Minuten, um 14:50 UTC
Wind 7 kt aus Südwest
Temperatur 2°C
Luftfeuchtigkeit 100%
Luftdruck 1020 hPa
Sichtweite: 3100 m
Geschlossene Wolkendecke in der Höhe von 300 ft
feuchter Dunst

METAR: EDHL 241450Z 23007KT 3100 BR OVC003 02/02 Q1020

Zeit: 16:15 (15:15 UTC)

Prognose

Neuester Wetterbericht von vor 1 Stunde und 15 Minuten, um 14:00 UTC
Gültige Prognose vom 24 um 15 UTC bis 24 um 21 UTC
Wind 7 kt aus West/Südwest
Sichtweite: 2500 m
Geschlossene Wolkendecke in der Höhe von 300 ft
feuchter Dunst
Zeitweise
vom 24 um 15 UTC bis 24 um 21 UTC
Sichtweite: 3500 m
Geschlossene Wolkendecke in der Höhe von 500 ft
Sprühregen leicht

TAF: EDHL 241400Z 2415/2421 24007KT 2500 BR OVC003 TEMPO 2415/2421 3500 -DZ OVC005

Wetterbeobachtungen und Prognosen von mehr als 4000 Flughäfen (METAR und TAF Bericht).

Die verfügbaren Stationen werden durch gelbe und rote Markierungen auf der Karte dargestellt.

Führen Sie die Maus auf sie, um den Namen der Station zu sehen.

Darauf klicken, um die Beobachtung von Wetterbeobachtungen und Prognosen zu sehen.

Um die Karte zu ändern : klicken Sie auf den grünen Tasten mit einem schwarzen Kreuz Zum Vergrößern, auf den grünen Button mit einem Gedankenstrich zu verkleinern, oder auf die grünen Pfeile für benachbarte Karten.


METAR-TAF: